createdAt,value
2023-02-15T00:01:53.288Z,19.83
2023-02-15T00:04:23.213Z,21.20
2023-02-15T00:06:51.574Z,20.90
2023-02-15T00:09:19.272Z,22.43
2023-02-15T00:11:51.023Z,20.27
2023-02-15T00:14:21.087Z,21.77
2023-02-15T00:16:50.106Z,21.20
2023-02-15T00:19:20.842Z,21.17
2023-02-15T00:21:49.901Z,20.87
2023-02-15T00:24:19.755Z,20.60
2023-02-15T00:26:48.463Z,19.70
2023-02-15T00:29:17.672Z,21.33
2023-02-15T00:31:45.549Z,21.93
2023-02-15T00:34:15.317Z,19.13
2023-02-15T00:36:44.745Z,19.87
2023-02-15T00:39:12.864Z,19.10
2023-02-15T00:41:40.993Z,18.90
2023-02-15T00:44:09.000Z,20.90
2023-02-15T00:46:37.118Z,22.03
2023-02-15T00:49:05.499Z,21.17
2023-02-15T00:51:33.196Z,21.10
2023-02-15T00:54:02.270Z,22.27
2023-02-15T00:56:30.222Z,21.53
2023-02-15T00:58:57.932Z,20.13
2023-02-15T01:01:26.769Z,20.30
2023-02-15T01:03:54.854Z,21.10
2023-02-15T01:06:22.766Z,21.10
2023-02-15T01:08:50.457Z,19.77
2023-02-15T01:11:23.744Z,22.10
2023-02-15T01:13:52.684Z,21.33
2023-02-15T01:16:20.912Z,20.83
2023-02-15T01:18:49.490Z,21.30
2023-02-15T01:21:20.086Z,22.17
2023-02-15T01:23:48.596Z,22.30
2023-02-15T01:26:16.807Z,21.30
2023-02-15T01:28:45.966Z,20.83
2023-02-15T01:31:16.165Z,22.33
2023-02-15T01:33:43.908Z,22.07
2023-02-15T01:36:12.236Z,22.30
2023-02-15T01:38:40.959Z,21.57
2023-02-15T01:41:27.989Z,21.73
2023-02-15T01:43:59.006Z,21.47
2023-02-15T01:46:32.897Z,21.53
2023-02-15T01:49:09.011Z,21.43
2023-02-15T01:51:39.981Z,20.73
2023-02-15T01:54:13.996Z,23.97
2023-02-15T01:56:43.827Z,20.67
2023-02-15T01:59:18.995Z,20.87
2023-02-15T02:01:46.893Z,22.67
2023-02-15T02:04:22.597Z,22.40
2023-02-15T02:06:52.122Z,20.73
2023-02-15T02:09:19.796Z,20.77
2023-02-15T02:11:50.034Z,19.90
2023-02-15T02:14:19.778Z,22.87
2023-02-15T02:16:55.189Z,21.43
2023-02-15T02:20:00.447Z,21.80
2023-02-15T02:22:59.162Z,19.93
2023-02-15T02:26:24.813Z,20.37
2023-02-15T02:29:24.230Z,21.50
2023-02-15T02:32:09.564Z,21.73
2023-02-15T02:34:45.311Z,20.93
2023-02-15T02:37:24.744Z,20.73
2023-02-15T02:40:05.818Z,22.03
2023-02-15T02:42:41.045Z,20.03
2023-02-15T02:45:11.468Z,21.57
2023-02-15T02:47:45.130Z,19.30
2023-02-15T02:50:18.484Z,21.07
2023-02-15T02:52:47.310Z,22.30
2023-02-15T02:55:19.372Z,20.43
2023-02-15T02:57:54.542Z,20.97
2023-02-15T03:00:23.945Z,20.17
2023-02-15T03:02:59.296Z,19.60
2023-02-15T03:05:31.739Z,20.07
2023-02-15T03:08:02.147Z,20.30
2023-02-15T03:10:31.478Z,19.43
2023-02-15T03:12:59.252Z,19.77
2023-02-15T03:15:50.909Z,19.20
2023-02-15T03:18:20.081Z,18.97
2023-02-15T03:20:51.476Z,20.03
2023-02-15T03:23:22.438Z,19.60
2023-02-15T03:25:53.683Z,20.57
2023-02-15T03:28:27.307Z,19.07
2023-02-15T03:30:58.809Z,18.90
2023-02-15T03:33:29.822Z,19.10
2023-02-15T03:36:04.504Z,19.03
2023-02-15T03:38:40.325Z,18.10
2023-02-15T03:41:12.723Z,20.13
2023-02-15T03:43:49.349Z,19.23
2023-02-15T03:46:26.490Z,18.83
2023-02-15T03:48:56.630Z,19.23
2023-02-15T03:51:38.958Z,18.83
2023-02-15T03:54:10.244Z,17.43
2023-02-15T03:56:40.264Z,19.50
2023-02-15T03:59:25.716Z,18.60
2023-02-15T04:02:03.954Z,17.50
2023-02-15T04:04:37.786Z,18.57
2023-02-15T04:07:09.650Z,18.50
2023-02-15T04:09:54.671Z,18.57
2023-02-15T04:12:22.546Z,18.30
2023-02-15T04:15:07.877Z,18.63
2023-02-15T04:17:35.730Z,19.33
2023-02-15T04:20:21.105Z,18.80
2023-02-15T04:23:07.902Z,18.10
2023-02-15T04:25:35.785Z,20.20
2023-02-15T04:28:03.438Z,18.63
2023-02-15T04:30:31.308Z,17.70
2023-02-15T04:32:59.620Z,20.70
2023-02-15T04:35:27.663Z,19.60
2023-02-15T04:37:57.188Z,19.43
2023-02-15T04:40:24.846Z,19.43
2023-02-15T04:42:52.563Z,19.60
2023-02-15T04:45:20.286Z,19.20
2023-02-15T04:47:48.041Z,18.70
2023-02-15T04:50:15.696Z,19.07
2023-02-15T04:52:43.347Z,18.93
2023-02-15T04:55:12.361Z,19.07
2023-02-15T04:57:40.030Z,17.77
2023-02-15T05:00:10.092Z,17.87
2023-02-15T05:02:37.802Z,19.03
2023-02-15T05:05:05.912Z,17.67
2023-02-15T05:07:33.596Z,17.87
2023-02-15T05:10:01.264Z,17.03
2023-02-15T05:12:30.280Z,18.13
2023-02-15T05:14:57.935Z,17.83
2023-02-15T05:17:25.786Z,18.03
2023-02-15T05:19:53.481Z,18.50
2023-02-15T05:22:21.250Z,16.70
2023-02-15T05:25:06.586Z,17.83
2023-02-15T05:27:53.652Z,17.40
2023-02-15T05:30:21.997Z,18.37
2023-02-15T05:32:49.809Z,18.47
2023-02-15T05:35:19.851Z,18.70
2023-02-15T05:37:47.527Z,18.60
2023-02-15T05:40:15.457Z,19.87
2023-02-15T05:42:44.567Z,19.57
2023-02-15T05:45:12.319Z,19.97
2023-02-15T05:47:40.041Z,19.17
2023-02-15T05:50:08.786Z,19.00
2023-02-15T05:52:36.989Z,19.33
2023-02-15T05:55:05.185Z,19.83
2023-02-15T05:57:32.889Z,19.10
2023-02-15T06:00:02.117Z,18.13
2023-02-15T06:02:29.840Z,20.03
2023-02-15T06:04:57.647Z,19.70
2023-02-15T06:07:25.384Z,19.20
2023-02-15T06:09:52.975Z,18.00
2023-02-15T06:12:20.820Z,17.70
2023-02-15T06:14:48.534Z,18.50
2023-02-15T06:17:18.400Z,18.27
2023-02-15T06:19:46.241Z,17.57
2023-02-15T06:22:14.991Z,19.27
2023-02-15T06:24:43.671Z,18.43
2023-02-15T06:27:11.622Z,19.07
2023-02-15T06:29:39.309Z,19.13
2023-02-15T06:32:07.644Z,18.63
2023-02-15T06:34:36.788Z,18.53
2023-02-15T06:37:04.384Z,18.20
2023-02-15T06:39:32.035Z,18.73
2023-02-15T06:41:59.874Z,18.00
2023-02-15T06:44:27.717Z,18.03
2023-02-15T06:46:55.403Z,18.03
2023-02-15T06:49:23.080Z,17.07
2023-02-15T06:51:52.046Z,19.27
2023-02-15T06:54:19.807Z,18.03
2023-02-15T06:56:47.420Z,17.30
2023-02-15T06:59:15.063Z,18.17
2023-02-15T07:01:42.804Z,19.33
2023-02-15T07:04:10.459Z,19.40
2023-02-15T07:06:38.120Z,19.30
2023-02-15T07:09:07.257Z,19.27
2023-02-15T07:11:53.098Z,18.73
2023-02-15T07:14:20.772Z,18.83
2023-02-15T07:16:48.416Z,18.13
2023-02-15T07:19:16.109Z,18.87
2023-02-15T07:21:44.933Z,18.57
2023-02-15T07:24:14.050Z,18.37
2023-02-15T07:26:41.753Z,17.87
2023-02-15T07:29:09.520Z,18.30
2023-02-15T07:31:37.141Z,20.37
2023-02-15T07:34:04.797Z,20.43
2023-02-15T07:36:32.585Z,19.30
2023-02-15T07:39:00.190Z,19.23
2023-02-15T07:41:29.258Z,20.10
2023-02-15T07:43:56.972Z,19.47
2023-02-15T07:46:24.575Z,18.43
2023-02-15T07:48:52.334Z,18.23
2023-02-15T07:51:20.057Z,20.80
2023-02-15T07:53:48.179Z,19.83
2023-02-15T07:56:17.343Z,19.30
2023-02-15T07:58:56.691Z,20.83
2023-02-15T08:01:26.889Z,20.03
2023-02-15T08:03:57.968Z,18.10
2023-02-15T08:06:27.868Z,15.13
2023-02-15T08:08:55.580Z,15.17
2023-02-15T08:11:29.975Z,15.70
2023-02-15T08:14:01.155Z,16.53
2023-02-15T08:16:32.270Z,16.97
2023-02-15T08:19:01.832Z,15.47
2023-02-15T08:21:31.266Z,16.53
2023-02-15T08:23:59.569Z,16.23
2023-02-15T08:26:29.142Z,15.13
2023-02-15T08:28:57.635Z,15.10
2023-02-15T08:31:26.845Z,14.37
2023-02-15T08:33:56.246Z,15.40
2023-02-15T08:36:26.005Z,14.97
2023-02-15T08:38:53.791Z,14.57
2023-02-15T08:41:23.831Z,13.83
2023-02-15T08:43:54.747Z,14.10
2023-02-15T08:46:24.074Z,14.17
2023-02-15T08:48:53.774Z,13.13
2023-02-15T08:51:23.657Z,13.80
2023-02-15T08:53:52.566Z,14.63
2023-02-15T08:56:23.253Z,14.17
2023-02-15T08:58:51.339Z,14.03
2023-02-15T09:01:21.014Z,13.57
2023-02-15T09:03:50.690Z,14.50
2023-02-15T09:06:19.664Z,14.23
2023-02-15T09:08:47.561Z,14.37
2023-02-15T09:11:23.321Z,13.10
2023-02-15T09:13:52.167Z,14.20
2023-02-15T09:16:19.732Z,14.07
2023-02-15T09:18:48.301Z,15.23
2023-02-15T09:21:18.064Z,14.33
2023-02-15T09:23:48.863Z,14.27
2023-02-15T09:26:18.979Z,15.97
2023-02-15T09:28:46.780Z,14.70
2023-02-15T09:31:16.976Z,15.57
2023-02-15T09:33:46.403Z,14.90
2023-02-15T09:36:18.892Z,16.83
2023-02-15T09:38:49.497Z,14.60
2023-02-15T09:41:37.393Z,15.30
2023-02-15T09:44:14.848Z,13.83
2023-02-15T09:47:01.184Z,15.07
2023-02-15T09:49:39.900Z,14.17
2023-02-15T09:52:23.549Z,13.70
2023-02-15T09:55:12.674Z,14.07
2023-02-15T09:57:50.358Z,14.00
2023-02-15T10:00:25.279Z,14.33
2023-02-15T10:03:15.597Z,13.90
2023-02-15T10:05:56.893Z,14.80
2023-02-15T10:08:50.798Z,13.00
2023-02-15T10:11:43.350Z,13.30
2023-02-15T10:14:39.736Z,14.13
2023-02-15T10:17:21.057Z,14.43
2023-02-15T10:20:01.957Z,13.83
2023-02-15T10:22:40.923Z,13.63
2023-02-15T10:25:19.460Z,14.50
2023-02-15T10:27:50.882Z,13.70
2023-02-15T10:30:25.866Z,12.93
2023-02-15T10:33:01.413Z,14.30
2023-02-15T10:35:41.510Z,13.37
2023-02-15T10:38:20.130Z,14.93
2023-02-15T10:41:00.822Z,14.67
2023-02-15T10:43:46.401Z,13.77
2023-02-15T10:46:26.266Z,14.80
2023-02-15T10:49:22.367Z,13.30
2023-02-15T10:52:05.653Z,13.63
2023-02-15T10:54:42.685Z,13.83
2023-02-15T10:57:19.923Z,13.40
2023-02-15T11:00:01.624Z,15.23
2023-02-15T11:02:41.637Z,13.80
2023-02-15T11:05:27.135Z,15.40
2023-02-15T11:07:58.857Z,15.43
2023-02-15T11:10:32.539Z,14.67
2023-02-15T11:13:07.389Z,13.93
2023-02-15T11:15:41.452Z,14.83
2023-02-15T11:18:15.412Z,14.33
2023-02-15T11:20:52.163Z,14.27
2023-02-15T11:23:20.278Z,15.37
2023-02-15T11:25:55.468Z,14.17
2023-02-15T11:28:29.823Z,14.73
2023-02-15T11:31:04.213Z,14.37
2023-02-15T11:33:39.556Z,14.93
2023-02-15T11:36:14.047Z,16.20
2023-02-15T11:38:44.646Z,15.87
2023-02-15T11:41:15.917Z,14.90
2023-02-15T11:43:48.770Z,14.97
2023-02-15T11:46:19.733Z,14.53
2023-02-15T11:48:47.481Z,15.03
2023-02-15T11:51:18.073Z,14.43
2023-02-15T11:53:47.508Z,14.53
2023-02-15T11:56:17.578Z,14.00
2023-02-15T11:58:50.002Z,16.37
2023-02-15T12:01:24.140Z,14.80
2023-02-15T12:03:53.770Z,17.27
2023-02-15T12:06:26.494Z,16.63
2023-02-15T12:09:03.040Z,15.77
2023-02-15T12:11:36.068Z,16.57
2023-02-15T12:14:06.750Z,17.90
2023-02-15T12:16:43.661Z,18.27
2023-02-15T12:19:28.390Z,18.30
2023-02-15T12:21:56.683Z,17.97
2023-02-15T12:24:28.589Z,18.73
2023-02-15T12:27:03.038Z,19.63
2023-02-15T12:29:36.953Z,19.17
2023-02-15T12:32:06.601Z,20.47
2023-02-15T12:34:40.567Z,20.90
2023-02-15T12:37:13.772Z,18.70
2023-02-15T12:39:53.818Z,20.27
2023-02-15T12:42:22.697Z,19.87
2023-02-15T12:44:59.882Z,20.87
2023-02-15T12:47:30.364Z,20.47
2023-02-15T12:50:19.937Z,21.57
2023-02-15T12:52:49.869Z,22.93
2023-02-15T12:55:24.544Z,23.43
2023-02-15T12:58:07.470Z,22.57
2023-02-15T13:00:36.014Z,23.70
2023-02-15T13:03:05.840Z,24.10
2023-02-15T13:05:37.431Z,24.87
2023-02-15T13:08:12.650Z,24.80
2023-02-15T13:10:45.086Z,24.40
2023-02-15T13:13:18.887Z,24.80
2023-02-15T13:15:50.523Z,26.03
2023-02-15T13:18:27.841Z,25.13
2023-02-15T13:20:55.581Z,25.07
2023-02-15T13:23:29.485Z,25.00
2023-02-15T13:26:00.321Z,26.10
2023-02-15T13:28:38.789Z,27.57
2023-02-15T13:31:14.359Z,27.90
2023-02-15T13:33:49.057Z,27.53
2023-02-15T13:36:24.032Z,28.20
2023-02-15T13:38:59.560Z,28.57
2023-02-15T13:41:35.040Z,27.73
2023-02-15T13:44:15.604Z,27.07
2023-02-15T13:46:58.405Z,28.87
2023-02-15T13:49:41.666Z,26.93
2023-02-15T13:52:20.671Z,27.37
2023-02-15T13:55:13.941Z,29.13
2023-02-15T13:58:16.517Z,26.93
2023-02-15T14:00:51.148Z,27.43
2023-02-15T14:03:39.112Z,25.27
2023-02-15T14:06:23.713Z,26.93
2023-02-15T14:09:04.988Z,28.20
2023-02-15T14:11:39.317Z,28.20
2023-02-15T14:14:54.916Z,29.73
2023-02-15T14:17:31.814Z,29.07
2023-02-15T14:20:03.924Z,28.00
2023-02-15T14:22:37.172Z,29.60
2023-02-15T14:25:20.462Z,31.30
2023-02-15T14:27:58.150Z,30.60
2023-02-15T14:30:31.098Z,31.80
2023-02-15T14:33:03.624Z,33.50
2023-02-15T14:35:33.593Z,31.73
2023-02-15T14:38:11.848Z,33.17
2023-02-15T14:41:05.091Z,34.77
2023-02-15T14:43:46.852Z,33.47
2023-02-15T14:46:23.968Z,32.63
2023-02-15T14:48:54.214Z,35.50
2023-02-15T14:51:59.856Z,32.53
2023-02-15T14:54:58.036Z,32.00
2023-02-15T14:57:29.264Z,34.23
2023-02-15T14:59:59.281Z,32.07
2023-02-15T15:02:30.892Z,33.97
2023-02-15T15:05:03.824Z,33.77
2023-02-15T15:07:40.525Z,33.17
2023-02-15T15:10:42.413Z,33.40
2023-02-15T15:13:39.410Z,34.60
2023-02-15T15:16:49.956Z,31.53
2023-02-15T15:20:05.925Z,31.80
2023-02-15T15:22:35.046Z,32.37
2023-02-15T15:25:03.653Z,31.50
2023-02-15T15:27:59.880Z,31.83
2023-02-15T15:31:04.224Z,33.07
2023-02-15T15:34:15.350Z,32.20
2023-02-15T15:37:30.467Z,32.10
2023-02-15T15:40:33.136Z,30.10
2023-02-15T15:43:49.009Z,32.17
2023-02-15T15:47:02.787Z,32.57
2023-02-15T15:49:33.356Z,32.23
2023-02-15T15:52:03.020Z,32.60
2023-02-15T15:54:31.973Z,32.50
2023-02-15T15:57:04.184Z,32.93
2023-02-15T15:59:35.598Z,31.30
2023-02-15T16:02:09.502Z,31.73
2023-02-15T16:04:37.463Z,32.70
2023-02-15T16:07:22.457Z,33.27
2023-02-15T16:09:56.966Z,32.93
2023-02-15T16:12:25.570Z,32.20
2023-02-15T16:14:56.288Z,34.63
2023-02-15T16:17:26.027Z,35.53
2023-02-15T16:19:59.184Z,33.17
2023-02-15T16:22:28.600Z,34.70
2023-02-15T16:25:33.033Z,37.10
2023-02-15T16:28:08.762Z,35.00
2023-02-15T16:30:40.316Z,34.70
2023-02-15T16:33:09.944Z,35.10
2023-02-15T16:35:39.983Z,35.53
2023-02-15T16:38:11.016Z,33.10
2023-02-15T16:40:54.675Z,35.50
2023-02-15T16:43:26.739Z,36.67
2023-02-15T16:46:05.359Z,34.47
2023-02-15T16:48:36.309Z,36.80
2023-02-15T16:51:04.551Z,34.57
2023-02-15T16:53:32.516Z,33.10
2023-02-15T16:56:03.164Z,34.93
2023-02-15T16:58:37.995Z,33.57
2023-02-15T17:01:10.919Z,30.30
2023-02-15T17:03:39.341Z,31.30
2023-02-15T17:06:21.114Z,32.87
2023-02-15T17:08:49.012Z,31.43
2023-02-15T17:11:18.925Z,32.00
2023-02-15T17:14:21.968Z,32.07
2023-02-15T17:16:54.807Z,30.63
2023-02-15T17:19:27.181Z,32.63
2023-02-15T17:21:56.484Z,29.97
2023-02-15T17:24:37.227Z,32.03
2023-02-15T17:27:12.881Z,30.33
2023-02-15T17:29:43.202Z,31.57
2023-02-15T17:32:19.981Z,31.17
2023-02-15T17:35:09.235Z,29.27
2023-02-15T17:37:48.702Z,28.73
2023-02-15T17:40:22.016Z,27.53
2023-02-15T17:42:49.919Z,28.77
2023-02-15T17:45:18.408Z,29.07
2023-02-15T17:47:50.311Z,29.67
2023-02-15T17:50:22.460Z,28.93
2023-02-15T17:52:50.602Z,30.40
2023-02-15T17:55:39.403Z,30.30
2023-02-15T17:58:09.759Z,28.27
2023-02-15T18:00:57.994Z,29.40
2023-02-15T18:03:57.155Z,28.70
2023-02-15T18:06:42.652Z,30.30
2023-02-15T18:09:30.299Z,27.23
2023-02-15T18:11:59.207Z,31.33
2023-02-15T18:14:26.920Z,30.87
2023-02-15T18:16:56.153Z,29.03
2023-02-15T18:19:27.232Z,28.30
2023-02-15T18:21:57.597Z,26.80
2023-02-15T18:24:26.989Z,29.40
2023-02-15T18:26:55.887Z,32.03
2023-02-15T18:29:23.732Z,29.33
2023-02-15T18:31:54.872Z,29.40
2023-02-15T18:34:28.626Z,29.77
2023-02-15T18:36:57.645Z,30.70
2023-02-15T18:39:30.703Z,30.67
2023-02-15T18:41:58.807Z,28.57
2023-02-15T18:44:27.325Z,30.33
2023-02-15T18:46:55.141Z,30.07
2023-02-15T18:49:22.874Z,30.33
2023-02-15T18:51:53.344Z,29.20
2023-02-15T18:54:23.655Z,29.03
2023-02-15T18:56:56.525Z,28.90
2023-02-15T18:59:25.157Z,28.10
2023-02-15T19:01:53.513Z,27.90
2023-02-15T19:04:23.054Z,28.20
2023-02-15T19:06:53.342Z,30.63
2023-02-15T19:09:23.560Z,29.33
2023-02-15T19:11:53.582Z,29.20
2023-02-15T19:14:27.199Z,26.50
2023-02-15T19:16:55.877Z,29.67
2023-02-15T19:19:24.014Z,29.13
2023-02-15T19:21:53.703Z,29.77
2023-02-15T19:24:25.219Z,28.83
2023-02-15T19:26:53.807Z,28.40
2023-02-15T19:29:28.404Z,30.47
2023-02-15T19:32:01.502Z,28.17
2023-02-15T19:34:29.579Z,30.37
2023-02-15T19:36:58.868Z,29.50
2023-02-15T19:39:30.146Z,29.53
2023-02-15T19:41:58.218Z,28.73
2023-02-15T19:44:26.171Z,27.97
2023-02-15T19:46:54.095Z,29.00
2023-02-15T19:49:28.039Z,28.23
2023-02-15T19:52:03.221Z,28.27
2023-02-15T19:54:35.640Z,30.27
2023-02-15T19:57:03.820Z,27.67
2023-02-15T19:59:34.019Z,27.30
2023-02-15T20:02:01.707Z,29.33
2023-02-15T20:04:29.579Z,29.40
2023-02-15T20:07:00.148Z,30.10
2023-02-15T20:09:31.761Z,29.77
2023-02-15T20:12:02.131Z,27.93
2023-02-15T20:14:29.855Z,27.60
2023-02-15T20:16:57.722Z,29.10
2023-02-15T20:19:25.630Z,27.33
2023-02-15T20:21:54.879Z,29.17
2023-02-15T20:24:23.544Z,28.80
2023-02-15T20:26:51.231Z,30.33
2023-02-15T20:29:22.149Z,29.10
2023-02-15T20:31:49.979Z,28.70
2023-02-15T20:34:20.775Z,29.03
2023-02-15T20:36:48.893Z,31.40
2023-02-15T20:39:20.514Z,28.53
2023-02-15T20:41:48.661Z,28.53
2023-02-15T20:44:24.076Z,30.17
2023-02-15T20:46:53.950Z,29.50
2023-02-15T20:49:22.168Z,29.57
2023-02-15T20:51:49.923Z,26.90
2023-02-15T20:54:19.988Z,28.27
2023-02-15T20:56:48.031Z,29.03
2023-02-15T20:59:23.966Z,30.83
2023-02-15T21:01:52.839Z,29.83
2023-02-15T21:04:28.505Z,30.83
2023-02-15T21:06:56.593Z,28.70
2023-02-15T21:09:24.252Z,27.97
2023-02-15T21:11:53.982Z,31.33
2023-02-15T21:14:24.968Z,31.70
2023-02-15T21:16:52.705Z,30.53
2023-02-15T21:19:22.163Z,28.60
2023-02-15T21:21:52.191Z,30.40
2023-02-15T21:24:23.353Z,28.97
2023-02-15T21:26:51.313Z,28.47
2023-02-15T21:29:20.256Z,29.00
2023-02-15T21:31:49.925Z,30.17
2023-02-15T21:34:19.574Z,31.50
2023-02-15T21:36:50.730Z,30.67
2023-02-15T21:39:21.588Z,29.87
2023-02-15T21:42:09.936Z,29.30
2023-02-15T21:44:55.843Z,29.27
2023-02-15T21:47:44.430Z,29.70
2023-02-15T21:50:32.232Z,27.47
2023-02-15T21:53:00.085Z,27.90
2023-02-15T21:55:27.948Z,27.87
2023-02-15T21:57:55.960Z,29.23
2023-02-15T22:00:25.493Z,29.73
2023-02-15T22:02:56.243Z,29.87
2023-02-15T22:05:28.485Z,30.03
2023-02-15T22:07:57.312Z,29.73
2023-02-15T22:10:27.339Z,30.30
2023-02-15T22:12:56.123Z,31.10
2023-02-15T22:15:25.859Z,30.83
2023-02-15T22:17:54.959Z,29.80
2023-02-15T22:20:25.489Z,30.20
2023-02-15T22:22:53.717Z,29.10
2023-02-15T22:25:24.081Z,30.23
2023-02-15T22:27:53.878Z,35.90
2023-02-15T22:30:26.336Z,31.67
2023-02-15T22:32:56.398Z,30.20
2023-02-15T22:35:26.952Z,27.47
2023-02-15T22:37:54.916Z,27.13
2023-02-15T22:40:23.537Z,26.33
2023-02-15T22:42:52.737Z,27.97
2023-02-15T22:45:23.391Z,26.40
2023-02-15T22:47:54.196Z,26.87
2023-02-15T22:50:25.996Z,25.93
2023-02-15T22:52:54.023Z,25.97
2023-02-15T22:55:24.152Z,27.33
2023-02-15T22:57:55.810Z,24.70
2023-02-15T23:00:26.247Z,25.57
2023-02-15T23:02:54.066Z,25.53
2023-02-15T23:05:25.254Z,26.30
2023-02-15T23:07:53.612Z,24.30
2023-02-15T23:10:23.604Z,25.13
2023-02-15T23:13:11.005Z,25.53
2023-02-15T23:15:39.180Z,27.83
2023-02-15T23:18:18.083Z,24.27
2023-02-15T23:20:49.584Z,27.53
2023-02-15T23:23:17.690Z,25.60
2023-02-15T23:25:45.372Z,28.43
2023-02-15T23:28:21.682Z,27.33
2023-02-15T23:30:49.807Z,26.40
2023-02-15T23:33:20.145Z,28.43
2023-02-15T23:35:49.696Z,27.17
2023-02-15T23:38:24.371Z,27.60
2023-02-15T23:41:13.913Z,27.47
2023-02-15T23:43:43.821Z,26.00
2023-02-15T23:46:23.079Z,27.27
2023-02-15T23:48:50.720Z,26.10
2023-02-15T23:51:19.816Z,26.13
2023-02-15T23:53:47.663Z,27.53
2023-02-15T23:56:18.337Z,25.97
2023-02-15T23:58:47.689Z,25.73
